Belt, MT (59412)

8:06 AM MDT on August 04, 2015 (GMT -0600)
APRSWXNET | | Change Station
CLOSE
Current Station
Personal Weather Station
Location: Highwood, MT
Elevation: 3487 ft
Nearby Weather Stations

Elev 3487 ft 47.50 °N, 110.86 °W | Updated 16 minutes ago

Overcast
Overcast
73 °F
Feels Like 77 °F
N
0
Wind Variable Wind from NNW
Gusts 6.0 mph

Today
High -- | Low -- °F
--% Chance of Precip.
Yesterday
High -- | Low -- °F
Precip. -- in
6:05 AM 8:53 PM
Waning Gibbous, 77% visible
Pressure 29.81 in
Visibility 10.0 miles
Clouds Mostly Cloudy 8500 ft
Heat Index 77 °F
Dew Point 47 °F
Humidity 40%
Rainfall in
Snow Depth Not available.
UV 1 out of 12
Pollen 7.10 out of 12
Air Quality Not available.
Flu Activity Not available.
METAR KGFA 041356Z AUTO 34002KT 10SM -SHRA BKN085 22/09 A2991 RMK AO2 RAB26E33SHRAB33 SLP094 T02150091 TSNO $

More Conditions Fewer Conditions

Pressure 29.81 in
Visibility 10.0 miles
Clouds Mostly Cloudy 8500 ft
Heat Index 77 °F
Dew Point 47 °F
Humidity 40%
Rainfall in
Snow Depth Not available.
UV 1 out of 12
Pollen 7.10 out of 12
Air Quality Not available.
Flu Activity Not available.
METAR KGFA 041356Z AUTO 34002KT 10SM -SHRA BKN085 22/09 A2991 RMK AO2 RAB26E33SHRAB33 SLP094 T02150091 TSNO $

More Conditions Fewer Conditions

10-Day Weather Forecast

×

Almanac

Astronomy

Aug. 04, 2015 Rise Set
Actual Time
Civil Twilight
Nautical Twilight
Astronomical Twilight
Moon
Length of Visible Light
Length of Day
Tomorrow will be .
, % of the Moon is Illuminated

Today's Extremes

State Highs State Lows

Community

WunderPhotos

Upload Photos

1,843,912 photos uploaded!

WunderBlogs® & News

Nearby

Air Quality

  Air Quality AQ Index Pollutant
Not available.

Snow Depth

Station Depth Elevation

Earthquake Activity

City Distance Mag. Time & Date
Minimum magnitude displayed is 2.5.

Coastal Water Temperatures

Place Temperature

Stations

Nearby Weather Stations

Station Location Temp. Windchill Dew Point Humidity Wind Precip. Elev Updated Type